Time;durP1;ratioP1;P1;durP2;ratioP2;P2;SDS_P1;SDS_P2;PMS_P1;PMS_P2;Temp;Humidity;BMP_temperature;BMP_pressure;BME280_temperature;BME280_humidity;BME280_pressure;Samples;Min_cycle;Max_cycle;Signal;HPM_P1;HPM_P2
2023/08/28 00:00:45;;;;;;;;;;;;;;;27.31;45.71;99401.41;6136168;23;19916;-84
2023/08/28 00:03:36;;;;;;;;;;;;;;;27.37;46.63;99384.81;6115329;23;19913;-85
2023/08/28 00:06:28;;;;;;;;;;;;;;;27.35;47.00;99395.66;6136142;23;19913;-85
2023/08/28 00:09:20;;;;;;;;;;;;;;;27.31;47.53;99395.81;6134672;23;20345;-86
2023/08/28 00:12:12;;;;;;;;;;;;;;;27.22;48.69;99402.16;6135332;23;19912;-85
2023/08/28 00:15:02;;;;;;;;;;;;;;;27.22;49.60;99393.00;6135585;23;20329;-86
2023/08/28 00:17:54;;;;;;;;;;;;;;;27.19;50.25;99402.28;6135029;23;19913;-83
2023/08/28 00:20:46;;;;;;;;;;;;;;;27.06;51.40;99391.25;6113031;23;19913;-80
2023/08/28 00:23:38;;;;;;;;;;;;;;;26.95;52.57;99354.59;6132901;23;19917;-80
2023/08/28 00:26:30;;;;;;;;;;;;;;;26.89;53.32;99358.44;6132898;23;20257;-81
2023/08/28 00:29:19;;;;;;;;;;;;;;;26.57;55.22;99376.38;6133267;23;19917;-82
2023/08/28 00:32:11;;;;;;;;;;;;;;;26.71;55.13;99373.06;6133552;23;19940;-81
2023/08/28 00:35:03;;;;;;;;;;;;;;;26.40;57.00;99375.84;6133786;23;19912;-81
2023/08/28 00:37:55;;;;;;;;;;;;;;;26.51;56.18;99379.00;6133286;23;20341;-80
2023/08/28 00:40:47;;;;;;;;;;;;;;;26.72;55.72;99382.97;6134012;23;20124;-80
2023/08/28 00:43:36;;;;;;;;;;;;;;;27.02;54.12;99381.47;6133989;23;19916;-80
2023/08/28 07:26:28;;;;;;;;;;;;;;;35.63;33.55;99255.91;6211680;23;19920;-77
2023/08/28 07:29:20;;;;;;;;;;;;;;;34.57;33.92;99255.47;6157418;23;19916;-76
2023/08/28 07:32:07;;;;;;;;;;;;;;;35.59;34.03;99261.09;6063954;23;19918;-81
2023/08/28 07:34:59;;;;;;;;;;;;;;;33.96;36.10;99261.09;5967224;23;20325;-79
2023/08/28 07:37:51;;;;;;;;;;;;;;;34.75;35.07;99258.56;5808447;24;19925;-77
2023/08/28 07:40:41;;;;;;;;;;;;;;;32.24;39.31;99259.69;5728027;24;20351;-78
2023/08/28 07:43:33;;;;;;;;;;;;;;;31.18;42.29;99260.56;5685478;25;19923;-77
2023/08/28 07:46:25;;;;;;;;;;;;;;;32.39;39.55;99264.41;5573177;25;20250;-79
2023/08/28 07:51:54;;;;;;;;;;;;;;;29.63;45.36;99256.75;5142000;27;20019;-76
2023/08/28 07:54:46;;;;;;;;;;;;;;;28.25;48.33;99249.59;5033430;28;20524;-78
2023/08/28 07:57:38;;;;;;;;;;;;;;;28.73;47.67;99244.16;5043869;28;19929;-78
2023/08/28 08:00:28;;;;;;;;;;;;;;;28.83;47.58;99249.22;4993803;28;19929;-81
2023/08/28 08:03:20;;;;;;;;;;;;;;;31.49;40.81;99245.88;4925259;28;20298;-77
2023/08/28 08:06:12;;;;;;;;;;;;;;;31.80;40.57;99243.13;4806803;29;19932;-77
2023/08/28 08:09:04;;;;;;;;;;;;;;;32.76;37.89;99237.06;4691723;30;20379;-77
2023/08/28 08:11:56;;;;;;;;;;;;;;;32.91;37.57;99234.84;4585045;30;20383;-76
2023/08/28 08:16:34;;;;;;;;;;;;;;;34.09;34.46;99224.66;5055954;27;2044071;-77
2023/08/28 08:19:26;;;;;;;;;;;;;;;36.19;30.95;99211.06;5093724;28;20306;-78
2023/08/28 08:22:18;;;;;;;;;;;;;;;34.51;32.54;99198.25;5107739;28;19927;-77
2023/08/28 08:25:10;;;;;;;;;;;;;;;35.59;30.78;99191.16;5098099;28;19923;-79
2023/08/28 08:28:02;;;;;;;;;;;;;;;35.57;30.37;99193.72;5073965;28;19923;-78
2023/08/28 08:30:54;;;;;;;;;;;;;;;32.95;33.50;99200.78;5063812;28;19916;-77
2023/08/28 08:33:44;;;;;;;;;;;;;;;30.87;38.20;99201.41;5053120;28;19920;-76
2023/08/28 08:36:33;;;;;;;;;;;;;;;34.65;31.68;99195.13;5055913;28;19921;-77
2023/08/28 08:39:25;;;;;;;;;;;;;;;33.88;32.17;99195.97;5072591;28;20294;-78
2023/08/28 08:42:17;;;;;;;;;;;;;;;35.53;30.35;99201.72;5042808;28;19921;-79
2023/08/28 08:45:09;;;;;;;;;;;;;;;37.08;28.49;99198.81;5054228;28;19921;-79
2023/08/28 08:48:01;;;;;;;;;;;;;;;30.55;38.71;99187.22;5058021;28;19917;-79
2023/08/28 08:50:52;;;;;;;;;;;;;;;29.14;42.24;99178.88;5042399;28;19921;-80
2023/08/28 08:53:45;;;;;;;;;;;;;;;28.89;43.72;99180.16;5039937;28;19916;-79
2023/08/28 08:56:38;;;;;;;;;;;;;;;28.75;44.67;99178.06;5054951;28;19920;-78
2023/08/28 08:59:30;;;;;;;;;;;;;;;32.11;37.76;99165.72;5042423;28;19916;-77
2023/08/28 09:02:22;;;;;;;;;;;;;;;31.55;38.84;99164.41;5044558;28;19917;-76
2023/08/28 09:05:07;;;;;;;;;;;;;;;32.72;35.62;99174.56;5067230;28;20382;-77
2023/08/28 09:08:01;;;;;;;;;;;;;;;35.54;31.81;99174.22;5052691;28;19920;-76
2023/08/28 09:10:48;;;;;;;;;;;;;;;38.61;26.61;99162.59;5076475;28;19916;-78
2023/08/28 09:13:40;;;;;;;;;;;;;;;39.67;24.43;99178.22;5057663;28;20297;-78
2023/08/28 09:16:32;;;;;;;;;;;;;;;37.94;26.14;99183.66;5070167;28;19920;-76
2023/08/28 09:19:24;;;;;;;;;;;;;;;37.07;28.25;99174.59;5077063;28;19916;-77
2023/08/28 09:22:16;;;;;;;;;;;;;;;30.42;40.96;99164.31;5062046;28;19916;-78
2023/08/28 09:25:08;;;;;;;;;;;;;;;31.39;38.07;99149.69;5074062;28;19920;-77
2023/08/28 09:27:58;;;;;;;;;;;;;;;35.79;30.53;99147.56;5063434;28;20378;-78
2023/08/28 09:30:50;;;;;;;;;;;;;;;35.07;31.92;99142.34;5047633;28;19924;-77
2023/08/28 09:33:48;;;;;;;;;;;;;;;35.06;32.37;99146.44;5060393;28;19917;-78
2023/08/28 09:36:40;;;;;;;;;;;;;;;33.98;34.03;99140.81;5048704;28;19924;-76
2023/08/28 09:39:32;;;;;;;;;;;;;;;31.39;37.75;99135.63;5059743;28;19917;-79
2023/08/28 09:42:24;;;;;;;;;;;;;;;33.40;34.41;99139.72;5063448;28;19916;-78
2023/08/28 09:45:16;;;;;;;;;;;;;;;34.26;32.29;99135.94;5047070;28;19917;-77
2023/08/28 09:48:08;;;;;;;;;;;;;;;37.18;27.57;99146.09;5065528;28;20314;-77
2023/08/28 09:51:02;;;;;;;;;;;;;;;36.73;25.58;99162.88;5065469;28;20321;-77
2023/08/28 09:54:03;;;;;;;;;;;;;;;36.33;26.40;99149.66;5064253;28;19916;-79
2023/08/28 09:56:53;;;;;;;;;;;;;;;33.85;30.05;99151.84;5063994;28;19921;-78
2023/08/28 09:59:45;;;;;;;;;;;;;;;35.43;27.86;99129.81;5065481;28;19916;-77
2023/08/28 10:02:37;;;;;;;;;;;;;;;37.48;25.95;99133.81;5077980;28;19921;-76
2023/08/28 10:05:30;;;;;;;;;;;;;;;36.17;28.00;99123.03;5065552;28;19916;-81
2023/08/28 10:08:22;;;;;;;;;;;;;;;35.39;29.27;99115.19;5054111;28;20298;-76
2023/08/28 10:11:12;;;;;;;;;;;;;;;35.30;29.71;99117.56;5062067;28;19987;-78
2023/08/28 10:14:05;;;;;;;;;;;;;;;35.86;28.38;99112.28;5076045;28;19917;-77
2023/08/28 10:16:57;;;;;;;;;;;;;;;37.57;26.05;99110.75;5058646;28;19920;-75
2023/08/28 10:20:03;;;;;;;;;;;;;;;38.29;25.29;99100.19;5062777;28;19920;-77
2023/08/28 10:22:52;;;;;;;;;;;;;;;35.32;27.98;99098.00;5046287;28;20375;-77
2023/08/28 10:25:42;;;;;;;;;;;;;;;31.80;33.53;99093.34;5063609;28;20387;-77
2023/08/28 10:28:30;;;;;;;;;;;;;;;34.00;30.40;99093.09;5061411;28;19921;-77
2023/08/28 10:31:23;;;;;;;;;;;;;;;38.77;24.31;99094.06;5058671;28;19920;-76
2023/08/28 10:34:13;;;;;;;;;;;;;;;35.17;28.83;99078.53;5068599;28;19917;-75
2023/08/28 10:37:01;;;;;;;;;;;;;;;37.28;26.37;99084.09;5055519;28;19921;-78
2023/08/28 10:39:51;;;;;;;;;;;;;;;40.27;22.95;99061.22;5066737;28;19916;-76
2023/08/28 10:42:43;;;;;;;;;;;;;;;35.67;27.22;99052.75;5037917;28;19917;-79
2023/08/28 10:45:37;;;;;;;;;;;;;;;37.39;25.83;99049.88;5058822;28;19924;-77
2023/08/28 10:48:29;;;;;;;;;;;;;;;38.51;24.50;99045.78;5063072;28;20576;-78
2023/08/28 10:51:21;;;;;;;;;;;;;;;34.03;31.68;99037.69;5073447;28;19917;-76
2023/08/28 10:54:09;;;;;;;;;;;;;;;30.97;36.05;99031.53;5067047;28;20541;-79
2023/08/28 10:56:56;;;;;;;;;;;;;;;33.65;31.00;99028.75;5052700;28;19924;-79
2023/08/28 10:59:49;;;;;;;;;;;;;;;30.84;35.73;99009.44;5048468;28;19916;-78
2023/08/28 11:02:57;;;;;;;;;;;;;;;29.33;36.81;99006.66;5032049;28;19928;-78
2023/08/28 11:05:47;;;;;;;;;;;;;;;33.97;29.76;99011.56;5073391;28;19916;-78
2023/08/28 11:08:41;;;;;;;5.65;1.33;;;;;;;35.05;27.33;99015.66;5044773;28;20406;-79
2023/08/28 11:11:36;;;;;;;4.70;1.30;;;;;;;32.29;32.05;99007.00;5062192;28;20047;-81
2023/08/28 11:14:44;;;;;;;8.00;1.70;;;;;;;31.58;33.94;99000.44;5030195;28;20537;-81
2023/08/28 11:17:36;;;;;;;9.52;1.17;;;;;;;31.18;34.15;98993.72;5042222;28;20418;-81
2023/08/28 11:20:37;;;;;;;3.35;1.27;;;;;;;30.67;34.44;98979.69;5032332;28;20052;-80
2023/08/28 11:23:34;;;;;;;5.20;1.77;;;;;;;30.12;34.04;98977.75;5050570;28;20048;-80
2023/08/28 11:26:31;;;;;;;3.53;1.17;;;;;;;29.81;35.14;98975.53;5055079;28;20048;-80
2023/08/28 11:29:32;;;;;;;4.30;1.25;;;;;;;29.60;35.52;98971.16;5025949;28;20060;-79
2023/08/28 11:32:26;;;;;;;13.27;1.48;;;;;;;29.41;35.62;98969.84;5061716;28;20035;-80
2023/08/28 11:35:21;;;;;;;2.05;1.25;;;;;;;29.40;36.47;98974.69;5055120;28;20051;-80
2023/08/28 11:38:15;;;;;;;5.32;2.38;;;;;;;29.30;36.11;98976.78;5054615;28;20436;-81
2023/08/28 11:41:10;;;;;;;3.88;1.13;;;;;;;29.12;37.32;98971.38;5045560;28;20043;-82
2023/08/28 11:44:12;;;;;;;10.80;2.25;;;;;;;28.95;37.10;98963.97;5051265;28;20047;-80
2023/08/28 11:47:04;;;;;;;8.02;2.00;;;;;;;29.05;37.76;98948.63;5050157;28;20059;-77
2023/08/28 11:49:59;;;;;;;6.35;1.70;;;;;;;28.85;39.26;98933.25;5060823;28;20047;-80
2023/08/28 11:52:54;;;;;;;5.93;1.48;;;;;;;28.85;39.15;98915.72;5048853;28;20043;-80
2023/08/28 13:22:11;;;;;;;5.57;2.45;;;;;;;27.79;50.41;98971.53;5050909;23;20819;-81
2023/08/28 13:25:05;;;;;;;8.82;2.13;;;;;;;27.66;49.99;98968.97;4960543;28;20054;-82
2023/08/28 13:27:57;;;;;;;;;;;;;;;27.61;50.42;98978.78;4978542;28;20038;-82
2023/08/28 13:30:52;;;;;;;11.63;2.90;;;;;;;27.59;50.99;98983.28;4953909;28;19919;-82
2023/08/28 13:33:46;;;;;;;7.38;2.58;;;;;;;27.59;52.49;98992.44;4942536;29;20046;-82
2023/08/28 13:36:44;;;;;;;8.30;2.03;;;;;;;27.31;52.49;98968.66;4961838;29;20054;-82
2023/08/28 13:39:38;;;;;;;4.75;1.98;;;;;;;27.43;52.39;98972.50;4971131;28;20058;-82
2023/08/28 13:42:33;;;;;;;6.82;2.70;;;;;;;27.48;52.26;98957.88;4953465;29;20057;-82
2023/08/28 13:45:25;;;;;;;7.75;1.90;;;;;;;27.53;52.79;98958.03;4963872;29;20812;-82
2023/08/28 13:48:20;;;;;;;4.90;1.80;;;;;;;27.58;52.83;98932.25;4963326;28;20057;-82
2023/08/28 13:51:17;;;;;;;5.72;1.65;;;;;;;27.61;52.41;98939.69;4939903;29;20046;-82
2023/08/28 13:54:11;;;;;;;6.53;1.73;;;;;;;27.60;52.13;98934.56;4951344;29;20448;-82
2023/08/28 13:57:06;;;;;;;4.05;1.90;;;;;;;27.58;52.37;98949.00;4963325;29;20041;-82
2023/08/28 13:59:59;;;;;;;5.45;2.03;;;;;;;27.56;52.48;98953.53;4970760;29;20049;-82
2023/08/28 14:02:53;;;;;;;5.63;1.70;;;;;;;27.55;52.45;98951.97;4945372;29;20041;-83
2023/08/28 14:05:45;;;;;;;5.95;1.38;;;;;;;27.47;52.17;98945.16;4938378;29;20048;-83
2023/08/28 14:08:40;;;;;;;6.63;1.88;;;;;;;27.46;52.77;98913.69;4949508;29;20049;-83
2023/08/28 14:11:34;;;;;;;9.55;2.50;;;;;;;27.48;53.10;98913.97;4951022;29;20058;-82
2023/08/28 14:14:29;;;;;;;8.55;2.50;;;;;;;27.54;53.04;98936.47;4941236;29;20047;-81
2023/08/28 14:17:24;;;;;;;5.90;2.67;;;;;;;27.41;53.08;98941.47;4952583;29;20043;-80
2023/08/28 14:20:16;;;;;;;;;;;;;;;27.30;53.33;98949.59;4944513;29;20124;-81
2023/08/28 14:23:10;;;;;;;5.68;2.33;;;;;;;27.37;53.61;98954.84;4931860;28;19918;-80
2023/08/28 14:26:09;;;;;;;3.03;2.00;;;;;;;27.27;53.62;98964.50;4943529;28;20038;-81
2023/08/28 14:29:04;;;;;;;7.25;3.03;;;;;;;27.42;53.19;98993.28;4949247;28;20058;-81
2023/08/28 14:31:58;;;;;;;7.20;1.85;;;;;;;27.34;52.93;99009.59;4944788;29;20529;-80
2023/08/28 14:34:53;;;;;;;5.47;1.90;;;;;;;27.10;53.49;99005.94;4945550;29;20054;-81
2023/08/28 14:37:45;;;;;;;;;;;;;;;27.13;53.28;99002.19;4941966;29;20039;-80
2023/08/28 14:40:39;;;;;;;6.05;2.30;;;;;;;27.11;53.85;98985.94;4953894;28;19930;-81
2023/08/28 14:43:34;;;;;;;5.25;2.00;;;;;;;27.11;53.78;98990.75;4946059;29;20426;-80
2023/08/28 14:46:29;;;;;;;10.05;2.15;;;;;;;27.18;53.83;98993.97;4940199;28;20403;-80
2023/08/28 14:49:18;;;;;;;;;;;;;;;27.17;54.17;98988.88;4939989;29;20047;-80
2023/08/28 14:52:10;;;;;;;10.52;2.65;;;;;;;27.19;54.09;98991.94;4954724;28;19915;-81
2023/08/28 14:55:05;;;;;;;7.00;1.63;;;;;;;27.21;54.19;98998.63;4954833;28;20047;-81
2023/08/28 14:57:59;;;;;;;4.55;1.98;;;;;;;27.23;53.75;98993.34;4945892;29;20055;-81
2023/08/28 15:00:55;;;;;;;;;;;;;;;27.29;53.45;98978.72;4956459;28;20410;-80
2023/08/28 15:03:52;;;;;;;3.70;1.30;;;;;;;27.26;53.56;98988.06;4956312;29;19919;-81
2023/08/28 15:06:47;;;;;;;3.80;1.40;;;;;;;27.27;53.59;98986.81;4936677;29;20043;-81
2023/08/28 15:09:42;;;;;;;3.53;1.23;;;;;;;27.23;53.15;99015.66;4958338;29;20520;-80
2023/08/28 15:12:36;;;;;;;3.90;1.00;;;;;;;27.16;53.17;99054.31;4946541;29;20047;-81
2023/08/28 15:15:28;;;;;;;;;;;;;;;26.92;53.02;99112.00;4937763;29;20449;-81
2023/08/28 15:54:55;;;;;;;4.20;1.08;;;;;;;26.57;55.89;99047.34;4949820;28;20576;-79
2023/08/28 15:57:47;;;;;;;4.93;0.85;;;;;;;26.57;55.70;99036.97;4959816;29;20050;-80
2023/08/28 16:00:39;;;;;;;5.68;1.23;;;;;;;26.56;55.50;99031.88;4963343;29;20054;-80
2023/08/28 16:03:31;;;;;;;3.92;0.88;;;;;;;26.56;54.89;99031.88;4947662;29;20540;-79
2023/08/28 16:06:26;;;;;;;2.72;0.65;;;;;;;26.48;54.69;99038.97;4923561;29;20050;-80
2023/08/28 16:09:21;;;;;;;1.45;0.50;;;;;;;26.39;54.22;99034.16;4902859;29;20047;-79
2023/08/28 16:12:16;;;;;;;2.70;0.73;;;;;;;26.31;54.50;99021.78;4901662;29;20047;-79
2023/08/28 16:15:08;;;;;;;3.45;1.25;;;;;;;26.27;54.66;99013.56;4909153;29;20062;-80
2023/08/28 16:18:00;;;;;;;6.88;1.05;;;;;;;26.24;54.93;99008.91;4919319;29;20054;-79
2023/08/28 16:20:54;;;;;;;0.68;0.40;;;;;;;26.22;54.62;99010.59;4921942;29;20066;-79
2023/08/28 16:23:49;;;;;;;1.55;0.50;;;;;;;26.16;54.58;98995.72;4911331;29;20043;-79
2023/08/28 16:26:41;;;;;;;;;;;;;;;26.12;54.65;98993.06;4908498;29;20046;-79
2023/08/28 16:29:33;;;;;;;4.45;0.75;;;;;;;26.10;55.23;98994.78;4936465;29;19915;-79
2023/08/28 16:32:28;;;;;;;2.13;0.60;;;;;;;26.15;55.66;99006.09;4928950;29;20055;-79
2023/08/28 16:35:20;;;;;;;1.25;0.60;;;;;;;26.15;55.78;99008.13;4938570;29;20529;-78
2023/08/28 16:38:13;;;;;;;2.95;0.80;;;;;;;26.13;55.34;99003.00;4938736;29;20051;-80
2023/08/28 16:41:05;;;;;;;2.75;0.68;;;;;;;26.12;55.46;99007.00;4924016;29;20055;-80
2023/08/28 16:43:59;;;;;;;3.25;0.77;;;;;;;26.04;55.17;99007.78;4935774;29;20753;-80
2023/08/28 16:46:51;;;;;;;;;;;;;;;25.97;55.43;99000.47;4942582;29;20050;-80
2023/08/28 16:49:43;;;;;;;2.95;0.60;;;;;;;25.92;56.03;98999.09;4915388;29;19922;-80
2023/08/28 16:52:38;;;;;;;1.60;0.80;;;;;;;25.93;56.11;98997.84;4931369;29;20058;-80
2023/08/28 16:55:30;;;;;;;;;;;;;;;25.94;55.86;98985.47;4933856;29;20533;-79
2023/08/28 16:58:24;;;;;;;0.82;0.40;;;;;;;25.62;55.10;98976.88;4944758;29;19931;-81
2023/08/28 17:01:16;;;;;;;;;;;;;;;25.38;55.26;98968.25;4936478;28;20051;-81
2023/08/28 17:04:08;;;;;;;0.30;0.25;;;;;;;25.16;56.13;98971.09;4935175;28;19914;-80
2023/08/28 17:07:03;;;;;;;8.07;1.50;;;;;;;24.97;56.79;98961.13;4935276;29;20437;-81
2023/08/28 17:09:57;;;;;;;2.70;0.60;;;;;;;25.01;57.12;98959.75;4936149;29;20047;-82
2023/08/28 17:12:47;;;;;;;;;;;;;;;24.95;57.34;98955.22;4930470;29;20065;-82
2023/08/28 17:15:42;;;;;;;2.22;0.40;;;;;;;24.83;57.71;98942.94;4950430;29;19915;-82
2023/08/28 17:18:36;;;;;;;1.08;0.55;;;;;;;24.80;57.98;98954.97;4930506;29;20054;-81
2023/08/28 17:21:31;;;;;;;1.63;0.80;;;;;;;24.83;58.20;98964.41;4937160;29;20051;-81
2023/08/28 17:24:25;;;;;;;3.00;0.50;;;;;;;24.83;58.72;98964.41;4934464;29;20050;-82
2023/08/28 17:27:18;;;;;;;1.80;0.63;;;;;;;24.88;58.68;98961.06;4951152;29;20038;-82
2023/08/28 17:30:08;;;;;;;1.17;0.63;;;;;;;25.18;58.02;98951.94;4912204;29;20047;-81
2023/08/28 17:33:02;;;;;;;0.82;0.50;;;;;;;25.11;58.44;98963.34;4946854;29;20058;-82
2023/08/28 17:35:57;;;;;;;1.33;0.68;;;;;;;25.07;59.19;98965.50;4928862;29;20051;-82
2023/08/28 17:38:52;;;;;;;2.70;0.88;;;;;;;24.57;61.41;98977.66;4939217;29;20047;-82
2023/08/28 17:41:46;;;;;;;6.82;0.70;;;;;;;24.30;62.38;98983.78;4951047;29;20054;-81
2023/08/28 17:44:33;;;;;;;1.80;0.90;;;;;;;24.21;62.78;98978.94;4950001;28;20116;-82
2023/08/28 17:47:28;;;;;;;2.78;1.00;;;;;;;23.86;65.08;98989.22;4947272;28;20046;-81
2023/08/28 17:50:20;;;;;;;1.33;0.50;;;;;;;21.72;72.27;98997.63;4959372;29;20050;-81
2023/08/28 17:53:15;;;;;;;3.45;1.13;;;;;;;20.72;78.71;98999.03;4945025;29;20050;-81
2023/08/28 17:56:09;;;;;;;2.60;1.17;;;;;;;20.14;82.38;99013.50;4933940;29;20038;-81
2023/08/28 17:59:04;;;;;;;2.05;1.02;;;;;;;19.80;85.26;99033.00;4930900;29;20054;-79
2023/08/28 18:01:56;;;;;;;4.82;1.08;;;;;;;19.82;83.83;99036.09;4928722;29;20047;-80
2023/08/28 18:04:45;;;;;;;;;;;;;;;20.17;82.54;99038.28;4953719;29;20054;-79
2023/08/28 18:07:35;;;;;;;;;;;;;;;21.10;76.60;99034.56;4942132;29;19915;-80
2023/08/28 18:10:24;;;;;;;;;;;;;;;22.00;72.75;99026.63;4934128;29;20298;-80
2023/08/28 18:13:14;;;;;;;;;;;;;;;22.41;70.92;99025.97;4932793;29;19914;-79
2023/08/28 18:16:15;;;;;;;;;;;;;;;22.88;69.35;99024.31;4937254;29;19915;-78
2023/08/28 18:19:06;;;;;;;;;;;;;;;23.28;67.25;99015.59;4944703;29;19915;-78
2023/08/28 18:21:57;;;;;;;;;;;;;;;23.64;66.68;99021.66;4935177;29;19918;-79
2023/08/28 18:24:50;;;;;;;;;;;;;;;23.89;65.52;99020.84;4910401;29;19915;-79
2023/08/28 18:27:42;;;;;;;;;;;;;;;24.13;64.87;99018.47;4921929;29;19915;-79
2023/08/28 18:30:32;;;;;;;;;;;;;;;24.31;64.43;99024.22;4922543;29;19919;-79
2023/08/28 18:33:24;;;;;;;;;;;;;;;23.98;64.10;99031.25;4922802;29;19915;-80
2023/08/28 18:36:14;;;;;;;;;;;;;;;24.06;64.84;99029.81;4916664;29;19914;-79
2023/08/28 18:39:03;;;;;;;;;;;;;;;24.13;64.15;99024.00;4929640;29;19918;-80
2023/08/28 18:41:56;;;;;;;;;;;;;;;23.84;65.31;99029.75;4927295;29;19918;-80
2023/08/28 18:44:43;;;;;;;;;;;;;;;23.86;65.63;99027.31;4939440;29;19918;-80
2023/08/28 18:47:35;;;;;;;;;;;;;;;24.24;64.67;99035.56;4937839;29;19915;-80
2023/08/28 18:50:25;;;;;;;;;;;;;;;24.60;63.45;99043.47;4924346;29;19915;-79
2023/08/28 18:53:17;;;;;;;;;;;;;;;24.80;63.20;99051.50;4946321;29;19914;-79
2023/08/28 18:56:09;;;;;;;;;;;;;;;24.84;62.31;99057.72;4939351;29;19914;-80
2023/08/28 18:59:02;;;;;;;;;;;;;;;24.60;62.95;99072.03;4937257;29;19918;-80
2023/08/28 19:01:54;;;;;;;;;;;;;;;24.17;64.10;99069.16;4941765;29;20301;-80
2023/08/28 19:04:46;;;;;;;;;;;;;;;24.12;65.02;99070.47;4946029;29;20585;-79
2023/08/28 19:07:38;;;;;;;;;;;;;;;24.51;64.16;99071.97;4939626;29;19915;-80
2023/08/28 19:10:27;;;;;;;;;;;;;;;24.17;65.25;99069.94;4939587;29;20378;-79
2023/08/28 19:13:19;;;;;;;;;;;;;;;24.14;65.20;99089.47;4939864;29;19914;-79
2023/08/28 19:16:09;;;;;;;;;;;;;;;24.46;64.05;99083.66;4929790;29;19914;-79
2023/08/28 19:18:58;;;;;;;;;;;;;;;24.33;64.19;99088.44;4928912;29;19919;-80
2023/08/28 19:21:47;;;;;;;;;;;;;;;24.28;63.96;99095.34;4926877;29;19923;-80
2023/08/28 19:24:37;;;;;;;;;;;;;;;24.46;64.33;99094.00;4929306;29;19914;-80
2023/08/28 19:27:24;;;;;;;;;;;;;;;24.38;64.06;99095.47;4927033;29;19915;-80
2023/08/28 19:30:13;;;;;;;;;;;;;;;24.65;63.36;99099.28;4925008;29;19914;-80
2023/08/28 19:33:03;;;;;;;;;;;;;;;24.83;63.32;99095.09;4938489;29;19915;-80
2023/08/28 19:35:55;;;;;;;;;;;;;;;24.93;62.89;99091.19;4938083;29;19915;-80
2023/08/28 19:38:44;;;;;;;;;;;;;;;25.03;61.84;99095.59;4937219;29;19919;-80
2023/08/28 19:41:34;;;;;;;;;;;;;;;24.91;62.91;99088.84;4937695;29;19915;-80
2023/08/28 19:44:26;;;;;;;;;;;;;;;24.97;62.62;99086.28;4937792;29;20301;-80
2023/08/28 19:47:18;;;;;;;;;;;;;;;24.89;62.55;99093.34;4923188;29;19930;-78
2023/08/28 19:50:10;;;;;;;;;;;;;;;25.06;62.66;99100.25;4926031;29;19915;-80
2023/08/28 19:52:59;;;;;;;;;;;;;;;24.92;61.88;99112.66;4937902;29;19919;-80
2023/08/28 19:55:49;;;;;;;;;;;;;;;24.97;62.92;99105.75;4937544;29;19914;-80
2023/08/28 19:58:36;;;;;;;;;;;;;;;25.18;62.09;99113.31;4937045;29;20561;-79
2023/08/28 20:01:25;;;;;;;;;;;;;;;25.30;61.65;99109.69;4937296;29;19914;-80
2023/08/28 20:04:14;;;;;;;;;;;;;;;25.24;61.76;99105.97;4928088;29;19915;-80
2023/08/28 20:07:06;;;;;;;;;;;;;;;25.35;61.61;99106.31;4925593;29;19915;-79
2023/08/28 20:09:56;;;;;;;;;;;;;;;25.29;61.62;99102.59;4937984;29;19914;-79
2023/08/28 20:12:48;;;;;;;;;;;;;;;25.38;61.51;99110.22;4927542;29;19915;-79
2023/08/28 20:15:40;;;;;;;;;;;;;;;25.40;61.41;99105.72;4938180;29;20289;-79
2023/08/28 20:18:32;;;;;;;;;;;;;;;25.44;60.69;99102.81;4924522;29;19923;-79
2023/08/28 20:21:24;;;;;;;;;;;;;;;25.46;60.67;99095.56;4938603;29;19915;-79
2023/08/28 20:24:16;;;;;;;;;;;;;;;25.27;60.80;99093.13;4938267;29;19915;-79
2023/08/28 20:27:08;;;;;;;;;;;;;;;25.30;61.80;99097.78;4936242;29;19915;-79
2023/08/28 20:29:57;;;;;;;;;;;;;;;25.24;61.81;99094.81;4927515;29;19915;-79
2023/08/28 20:32:49;;;;;;;;;;;;;;;25.11;60.89;99102.44;4936462;29;19914;-79
2023/08/28 20:35:41;;;;;;;;;;;;;;;24.78;61.71;99084.56;4914408;29;19915;-79
2023/08/28 20:38:33;;;;;;;;;;;;;;;24.97;62.57;99080.72;4928687;29;19919;-78
2023/08/28 20:41:23;;;;;;;;;;;;;;;24.48;63.12;99077.66;4937103;29;19923;-79
2023/08/28 20:44:15;;;;;;;;;;;;;;;24.36;63.21;99070.91;4937951;29;20370;-79
2023/08/28 20:47:08;;;;;;;;;;;;;;;23.75;64.40;99072.06;4937402;29;19915;-79
2023/08/28 20:50:00;;;;;;;;;;;;;;;23.66;66.58;99080.28;4925762;29;19915;-79
2023/08/28 20:52:52;;;;;;;;;;;;;;;24.13;65.56;99080.34;4926642;29;19923;-79
2023/08/28 20:55:44;;;;;;;;;;;;;;;23.69;64.93;99087.72;4923562;29;19914;-79
2023/08/28 20:58:36;;;;;;;;;;;;;;;23.92;65.78;99092.16;4937504;29;19919;-79
2023/08/28 21:01:28;;;;;;;;;;;;;;;23.83;66.29;99095.59;4925942;29;20301;-79
2023/08/28 21:04:20;;;;;;;;;;;;;;;24.22;65.29;99099.16;4923673;29;19914;-79
2023/08/28 21:07:12;;;;;;;;;;;;;;;24.07;65.33;99098.03;4926773;29;19923;-79
2023/08/28 21:10:04;;;;;;;;;;;;;;;24.06;65.66;99090.94;4937563;29;19914;-79
2023/08/28 21:12:56;;;;;;;;;;;;;;;24.16;65.40;99075.91;4937529;29;19915;-79
2023/08/28 21:15:49;;;;;;;;;;;;;;;24.20;65.12;99057.94;4937490;29;19915;-79
2023/08/28 21:18:41;;;;;;;;;;;;;;;24.62;63.84;99049.38;4937101;29;19918;-79
2023/08/28 21:21:33;;;;;;;;;;;;;;;24.69;62.54;99052.66;4937936;29;19919;-79
2023/08/28 21:24:25;;;;;;;;;;;;;;;24.21;62.46;99065.03;4940793;29;19915;-80
2023/08/28 21:27:17;;;;;;;;;;;;;;;24.64;63.57;99083.81;4941318;29;19915;-79
2023/08/28 21:30:06;;;;;;;;;;;;;;;24.75;62.60;99094.56;4928770;29;20389;-80
2023/08/28 21:32:56;;;;;;;;;;;;;;;24.89;62.09;99096.13;4929458;29;19919;-79
2023/08/28 21:35:49;;;;;;;;;;;;;;;24.81;62.35;99100.31;4939908;29;19915;-79
2023/08/28 21:38:38;;;;;;;;;;;;;;;23.94;63.27;99116.69;4941215;29;19918;-79
2023/08/28 21:41:28;;;;;;;;;;;;;;;23.54;65.10;99124.66;4928553;29;19914;-79
2023/08/28 21:44:17;;;;;;;;;;;;;;;23.55;65.65;99129.00;4940740;29;19915;-79
2023/08/28 21:47:09;;;;;;;;;;;;;;;23.84;64.98;99118.59;4941220;29;19919;-79
2023/08/28 21:50:17;;;;;;;;;;;;;;;24.04;64.16;99113.59;4940479;29;19914;-79
2023/08/28 21:53:26;;;;;;;;;;;;;;;23.68;64.88;99111.13;4941211;29;20301;-79
2023/08/28 21:56:34;;;;;;;;;;;;;;;23.33;65.19;99118.47;4941734;29;19937;-79
2023/08/28 21:59:40;;;;;;;;;;;;;;;23.13;66.54;99114.31;4941022;29;19919;-79
2023/08/28 22:02:48;;;;;;;;;;;;;;;22.95;65.98;99115.59;4941276;29;19915;-79
2023/08/28 22:05:59;;;;;;;;;;;;;;;22.85;67.12;99113.13;4941066;29;19915;-79
2023/08/28 22:08:51;;;;;;;;;;;;;;;22.89;66.50;99119.34;4939489;29;19915;-79
2023/08/28 22:11:57;;;;;;;;;;;;;;;22.68;67.97;99125.41;4940437;29;19914;-79
2023/08/28 22:14:57;;;;;;;;;;;;;;;22.93;66.46;99123.56;4926269;29;19915;-79
2023/08/28 22:17:49;;;;;;;;;;;;;;;23.00;66.55;99117.06;4940060;29;19919;-80
2023/08/28 22:20:45;;;;;;;;;;;;;;;22.71;67.14;99124.56;4940261;29;19914;-80
2023/08/28 22:23:37;;;;;;;;;;;;;;;22.57;67.85;99125.69;4931426;29;19914;-82
2023/08/28 22:26:29;;;;;;;;;;;;;;;22.50;67.95;99126.63;4941461;29;19915;-82
2023/08/28 22:29:21;;;;;;;;;;;;;;;22.33;68.66;99116.00;4927874;29;19918;-80
2023/08/28 22:32:13;;;;;;;;;;;;;;;22.26;69.19;99102.31;4941269;29;19918;-80
2023/08/28 22:35:05;;;;;;;;;;;;;;;22.09;69.44;99102.34;4941455;29;19915;-80
2023/08/28 22:37:57;;;;;;;;;;;;;;;22.10;69.84;99103.09;4941470;29;19926;-80
2023/08/28 22:40:49;;;;;;;;;;;;;;;21.98;70.82;99115.66;4941085;29;19914;-80
2023/08/28 22:43:41;;;;;;;;;;;;;;;21.90;70.40;99124.50;4928472;29;19914;-80
2023/08/28 22:46:33;;;;;;;;;;;;;;;22.06;69.69;99122.56;4941279;29;20317;-80
2023/08/28 22:49:22;;;;;;;;;;;;;;;21.99;69.89;99110.91;4940705;29;19914;-81
2023/08/28 22:52:14;;;;;;;;;;;;;;;21.59;70.75;99104.63;4926953;29;19940;-78
2023/08/28 22:55:06;;;;;;;;;;;;;;;21.09;74.42;99108.41;4937924;29;19915;-78
2023/08/28 22:57:58;;;;;;;;;;;;;;;20.97;75.34;99106.31;4926177;29;19919;-78
2023/08/28 23:00:50;;;;;;;;;;;;;;;20.52;75.00;99110.69;4923734;29;19915;-78
2023/08/28 23:03:42;;;;;;;;;;;;;;;19.79;77.81;99103.94;4941839;29;20289;-78
2023/08/28 23:06:34;;;;;;;;;;;;;;;19.86;80.00;99111.34;4937288;29;19914;-78
2023/08/28 23:09:23;;;;;;;;;;;;;;;19.70;80.67;99113.94;4926754;29;19919;-78
2023/08/28 23:12:10;;;;;;;;;;;;;;;19.09;84.66;99116.66;4925491;29;20302;-78
2023/08/28 23:15:00;;;;;;;;;;;;;;;18.62;87.44;99113.59;4936199;29;19938;-77
2023/08/28 23:17:52;;;;;;;;;;;;;;;18.64;88.05;99118.69;4935910;29;19919;-77